Pine Haven, Wyoming
Current Conditions -  °F | °C
As of 5:53 AM on Friday 28 Nov 2014 (Local Time) from KGCC Reporting Station
Clear Clear  
Wind Chill: 39°   Ceiling: Unl
Heat Index: 46°   Visibility: 10mi
Dew Point: 27°   Wind: 17mph
Humidity: 47%   Direction: 230°SW
Pressure: 29.73"   Gusts: NA
Location:  44.3253°N, 104.815°W
Report Text: KGCC 281253Z AUTO 23015KT 10SM CLR 08/M03 A2973 RMK AO2 SLP061 T00781028 TSNO
Loading
Personal Weather Stations






























Interactive Weather Map New forecast layout! Learn more

10-Day Weather Forecast

Advertisements
Track Severe Weather on mobile